This is the latest recevied weather packets stored in our database for station/object KA3BQE-13. If no packets are shown the sender has not sent any weather packets the latest 10 day(s).
| Time | Temp. | Humidity | Pressure | Rain* | Wind** | Luminosity | Snow |
|---|---|---|---|---|---|---|---|
| 1777884530 | 8.89° C | 97% | 1007.8 hPa | 0 mm | - | 0 W/m² | - |
| 1777884228 | 8.89° C | 96% | 1007.8 hPa | 0 mm | - | 0 W/m² | - |
| 1777883924 | 8.89° C | 95% | 1008 hPa | 0 mm | - | 0 W/m² | - |
| 1777883621 | 8.89° C | 94% | 1008 hPa | 0 mm | - | 0 W/m² | - |
| 1777883316 | 8.89° C | 94% | 1008 hPa | 0 mm | - | 0 W/m² | - |
| 1777883013 | 9.44° C | 92% | 1008 hPa | 0 mm | - | 0 W/m² | - |
| 1777882710 | 9.44° C | 91% | 1008.1 hPa | 0 mm | - | 0 W/m² | - |
| 1777882407 | 10° C | 91% | 1008.2 hPa | 0 mm | - | 0 W/m² | - |
| 1777882102 | 10.56° C | 90% | 1008.3 hPa | 0 mm | - | 0 W/m² | - |
| 1777881800 | 10.56° C | 89% | 1008.4 hPa | 0 mm | - | 0 W/m² | - |
| 1777881497 | 10.56° C | 90% | 1008.5 hPa | 0 mm | - | 0 W/m² | - |
| 1777881194 | 9.44° C | 95% | 1008.4 hPa | 0 mm | - | 0 W/m² | - |
| 1777880891 | 8.89° C | 97% | 1008.5 hPa | 0 mm | - | 0 W/m² | - |
| 1777880589 | 8.89° C | 97% | 1008.6 hPa | 0 mm | - | 0 W/m² | - |
| 1777880287 | 8.89° C | 97% | 1008.4 hPa | 0 mm | - | 0 W/m² | - |
| 1777879985 | 8.89° C | 97% | 1008.3 hPa | 0 mm | - | 0 W/m² | - |
| 1777879683 | 8.89° C | 97% | 1008.4 hPa | 0 mm | - | 0 W/m² | - |
| 1777879379 | 8.89° C | 97% | 1008.5 hPa | 0 mm | - | 0 W/m² | - |
| 1777879076 | 8.89° C | 98% | 1008.6 hPa | 0 mm | - | 0 W/m² | - |
| 1777878774 | 7.78° C | 98% | 1008.5 hPa | 0 mm | - | 0 W/m² | - |
| 1777878471 | 7.78° C | 97% | 1008.4 hPa | 0 mm | - | 0 W/m² | - |
| 1777878167 | 8.33° C | 97% | 1008.4 hPa | 0 mm | - | 0 W/m² | - |
| 1777877864 | 8.33° C | 97% | 1008.6 hPa | 0 mm | - | 0 W/m² | - |
| 1777877560 | 8.33° C | 97% | 1008.6 hPa | 0 mm | - | 0 W/m² | - |
| 1777877257 | 8.33° C | 97% | 1008.5 hPa | 0 mm | - | 0 W/m² | - |
* Rain latest hour (hover to see other rain measurements)
** Current wind speed in m/s (hover to see current wind gust speed)